Time;durP1;ratioP1;P1;durP2;ratioP2;P2;SDS_P1;SDS_P2;PMS_P1;PMS_P2;Temp;Humidity;BMP_temperature;BMP_pressure;BME280_temperature;BME280_humidity;BME280_pressure;Samples;Min_cycle;Max_cycle;Signal;HPM_P1;HPM_P2
2023/08/16 00:02:17;;;;;;;6.25;3.47;;;15.60;55.40;;;;;;20672644;28;20129;-41
2023/08/16 00:12:17;;;;;;;5.63;3.00;;;15.50;54.40;;;;;;20679048;28;20060;-40
2023/08/16 00:22:18;;;;;;;5.50;3.10;;;15.30;60.30;;;;;;20675670;28;20552;-41
2023/08/16 00:32:18;;;;;;;6.13;3.30;;;15.30;70.60;;;;;;20689653;28;20054;-41
2023/08/16 00:42:19;;;;;;;5.97;3.55;;;15.20;74.00;;;;;;20676879;28;20421;-41
2023/08/16 00:52:20;;;;;;;4.50;2.80;;;15.30;79.00;;;;;;20678548;28;20049;-41
2023/08/16 01:02:23;;;;;;;4.40;2.65;;;15.20;72.50;;;;;;20674071;28;20055;-41
2023/08/16 01:12:46;;;;;;;5.32;2.83;;;15.10;63.50;;;;;;20667524;28;20049;-41
2023/08/16 01:23:05;;;;;;;5.53;3.40;;;15.00;69.40;;;;;;20669534;28;20508;-41
2023/08/16 01:33:11;;;;;;;4.80;3.33;;;15.00;89.00;;;;;;20676130;28;20045;-41
2023/08/16 01:43:14;;;;;;;6.93;3.70;;;15.10;94.10;;;;;;20660604;28;20041;-40
2023/08/16 01:53:15;;;;;;;4.80;3.10;;;15.20;98.00;;;;;;20687069;28;20049;-40
2023/08/16 02:03:16;;;;;;;5.57;3.35;;;15.20;99.90;;;;;;20684991;28;20133;-41
2023/08/16 02:13:16;;;;;;;5.55;4.00;;;15.10;99.50;;;;;;20668483;28;20526;-41
2023/08/16 02:23:17;;;;;;;6.90;3.80;;;15.00;99.90;;;;;;20666527;28;20071;-41
2023/08/16 02:33:17;;;;;;;6.30;4.25;;;14.80;94.20;;;;;;20670444;28;20048;-40
2023/08/16 02:43:18;;;;;;;7.07;4.25;;;14.80;95.70;;;;;;20664905;28;20215;-41
2023/08/16 02:53:18;;;;;;;6.33;4.10;;;14.70;99.90;;;;;;20681170;28;20037;-41
2023/08/16 03:03:19;;;;;;;6.07;4.03;;;14.70;99.90;;;;;;20677672;28;20092;-41
2023/08/16 03:13:20;;;;;;;6.32;4.57;;;14.80;99.90;;;;;;20674698;28;20049;-41
2023/08/16 03:23:20;;;;;;;5.60;4.50;;;14.80;99.90;;;;;;20681982;28;20099;-41
2023/08/16 03:33:21;;;;;;;5.35;3.88;;;14.70;99.90;;;;;;20681939;28;20056;-41
2023/08/16 03:43:21;;;;;;;7.97;4.30;;;14.70;99.90;;;;;;20692462;28;20210;-40
2023/08/16 03:53:22;;;;;;;6.55;4.03;;;14.50;99.90;;;;;;20684841;28;20520;-41
2023/08/16 04:03:22;;;;;;;6.55;4.00;;;14.50;99.90;;;;;;20685437;28;20049;-41
2023/08/16 04:13:23;;;;;;;7.15;4.25;;;14.40;99.90;;;;;;20697111;28;20041;-41
2023/08/16 04:23:24;;;;;;;7.93;4.20;;;14.30;99.90;;;;;;20698384;28;20064;-41
2023/08/16 04:33:24;;;;;;;5.88;4.05;;;14.20;97.30;;;;;;20688441;28;20046;-41
2023/08/16 04:43:25;;;;;;;6.68;4.30;;;14.20;98.00;;;;;;20688220;28;20042;-41
2023/08/16 04:53:26;;;;;;;6.15;4.43;;;14.20;99.90;;;;;;20679907;28;20053;-41
2023/08/16 05:03:29;;;;;;;7.43;4.72;;;14.20;99.90;;;;;;20667161;28;20069;-41
2023/08/16 05:13:29;;;;;;;7.60;5.57;;;14.20;99.90;;;;;;20669743;28;20056;-40
2023/08/16 05:23:30;;;;;;;9.98;6.07;;;14.40;99.90;;;;;;20679022;28;20046;-41
2023/08/16 05:33:30;;;;;;;8.70;6.18;;;14.50;99.90;;;;;;20694373;28;20069;-41
2023/08/16 05:43:32;;;;;;;11.85;6.72;;;14.80;99.90;;;;;;20677722;28;20569;-40
2023/08/16 05:53:32;;;;;;;7.13;5.78;;;15.30;99.90;;;;;;20673361;28;20053;-41
2023/08/16 06:03:33;;;;;;;9.65;6.65;;;15.80;99.90;;;;;;20661045;28;20038;-41
2023/08/16 06:13:34;;;;;;;11.82;6.47;;;16.40;99.90;;;;;;20688931;28;20041;-41
2023/08/16 06:23:35;;;;;;;7.00;5.10;;;17.10;99.90;;;;;;20675333;28;20678;-40
2023/08/16 06:33:37;;;;;;;9.25;5.07;;;17.30;89.50;;;;;;20691315;28;20488;-41
2023/08/16 06:43:37;;;;;;;5.55;4.20;;;17.90;49.80;;;;;;20688770;28;20109;-41
2023/08/16 06:53:39;;;;;;;8.38;6.60;;;18.30;15.00;;;;;;20701849;28;20135;-41
2023/08/16 07:03:40;;;;;;;5.38;3.72;;;18.50;1.30;;;;;;20696044;28;20046;-41
2023/08/16 07:13:40;;;;;;;6.93;4.10;;;18.50;1.00;;;;;;20698996;28;20173;-41
2023/08/16 07:23:41;;;;;;;7.47;4.32;;;18.50;1.00;;;;;;20691083;28;20050;-41
2023/08/16 07:33:42;;;;;;;6.50;3.47;;;18.70;1.00;;;;;;20691033;28;20041;-41
2023/08/16 07:43:42;;;;;;;6.07;3.13;;;18.80;1.00;;;;;;20708380;28;20045;-41
2023/08/16 07:53:43;;;;;;;7.30;3.63;;;19.10;1.00;;;;;;20700489;28;20090;-41
2023/08/16 08:03:44;;;;;;;4.85;2.50;;;19.20;1.00;;;;;;20712301;28;20033;-41
2023/08/16 08:13:44;;;;;;;3.72;1.60;;;19.10;1.00;;;;;;20696156;28;20092;-41
2023/08/16 08:23:45;;;;;;;4.35;1.92;;;19.20;1.00;;;;;;20701195;28;20037;-41
2023/08/16 08:33:45;;;;;;;6.05;2.08;;;19.50;1.00;;;;;;20683043;28;20046;-41
2023/08/16 08:43:46;;;;;;;4.20;1.10;;;20.00;1.00;;;;;;20701510;28;20034;-41
2023/08/16 08:53:46;;;;;;;3.07;0.90;;;20.40;1.00;;;;;;20698651;28;20053;-41
2023/08/16 09:03:49;;;;;;;2.33;1.10;;;20.70;1.00;;;;;;20706052;28;20042;-41
2023/08/16 09:13:51;;;;;;;11.88;7.68;;;21.10;1.00;;;;;;20693817;28;20042;-41
2023/08/16 09:23:56;;;;;;;2.55;1.27;;;21.60;1.00;;;;;;20696307;28;20485;-41
2023/08/16 09:34:00;;;;;;;3.53;1.02;;;22.10;1.00;;;;;;20700771;28;20049;-42
2023/08/16 09:44:06;;;;;;;4.55;1.20;;;22.50;1.00;;;;;;20696581;28;20429;-41
2023/08/16 09:54:12;;;;;;;2.58;1.00;;;23.00;1.00;;;;;;20706300;28;20509;-41
2023/08/16 10:04:13;;;;;;;1.60;0.90;;;23.50;1.00;;;;;;20695406;28;21221;-41
2023/08/16 10:14:14;;;;;;;2.25;0.73;;;23.50;1.00;;;;;;20672035;28;20042;-42
2023/08/16 10:24:15;;;;;;;1.80;0.93;;;24.40;1.00;;;;;;20686001;28;20092;-41
2023/08/16 10:34:18;;;;;;;2.75;0.95;;;24.10;1.00;;;;;;20712681;28;20138;-41
2023/08/16 10:44:23;;;;;;;3.22;1.10;;;23.80;1.00;;;;;;20702943;28;20065;-41
2023/08/16 10:54:37;;;;;;;1.85;1.00;;;23.90;1.00;;;;;;20706230;28;20050;-42
2023/08/16 11:04:38;;;;;;;2.70;1.20;;;23.70;1.00;;;;;;20707828;28;20125;-41
2023/08/16 11:14:39;;;;;;;1.90;0.90;;;23.70;1.00;;;;;;20710941;28;20297;-41
2023/08/16 11:24:40;;;;;;;2.20;0.80;;;23.90;1.00;;;;;;20719093;28;20072;-41
2023/08/16 11:34:40;;;;;;;1.83;0.90;;;24.00;1.00;;;;;;20711000;28;20542;-41
2023/08/16 11:44:41;;;;;;;1.73;0.70;;;24.10;1.00;;;;;;20741761;28;20042;-41
2023/08/16 11:54:41;;;;;;;2.13;0.98;;;24.80;1.00;;;;;;20720234;28;20552;-41
2023/08/16 12:04:42;;;;;;;1.63;1.08;;;25.50;1.00;;;;;;20733173;28;20030;-41
2023/08/16 12:14:43;;;;;;;3.50;1.13;;;25.60;1.00;;;;;;20730121;28;20088;-41
2023/08/16 12:24:43;;;;;;;3.67;1.23;;;25.20;1.00;;;;;;20714854;28;20044;-41
2023/08/16 12:34:44;;;;;;;2.10;1.10;;;24.90;1.00;;;;;;20724848;28;20564;-42
2023/08/16 12:44:44;;;;;;;3.85;1.23;;;24.90;1.00;;;;;;20714756;28;20351;-41
2023/08/16 12:54:45;;;;;;;1.77;1.05;;;24.90;1.00;;;;;;20720369;28;20065;-41
2023/08/16 13:04:45;;;;;;;2.20;1.00;;;24.90;1.00;;;;;;20714768;28;20045;-41
2023/08/16 13:14:46;;;;;;;1.40;0.90;;;25.00;1.00;;;;;;20722374;28;21149;-41
2023/08/16 13:24:46;;;;;;;2.05;0.70;;;25.40;1.00;;;;;;20715760;28;20065;-41
2023/08/16 13:34:47;;;;;;;3.72;1.00;;;25.20;1.00;;;;;;20711819;28;20041;-41
2023/08/16 13:44:47;;;;;;;2.80;1.27;;;25.80;1.00;;;;;;20710361;28;20072;-42
2023/08/16 13:54:48;;;;;;;3.97;1.35;;;25.80;1.00;;;;;;20716901;28;20076;-41
2023/08/16 14:04:48;;;;;;;2.10;0.95;;;26.10;1.00;;;;;;20719479;28;20044;-41
2023/08/16 14:14:49;;;;;;;2.72;1.23;;;25.90;1.00;;;;;;20714254;28;20476;-41
2023/08/16 14:24:49;;;;;;;1.85;1.00;;;25.40;1.00;;;;;;20719170;28;20046;-41
2023/08/16 14:34:50;;;;;;;2.25;1.00;;;25.10;1.00;;;;;;20701644;28;20054;-41
2023/08/16 14:44:51;;;;;;;2.58;1.10;;;24.90;1.00;;;;;;20719340;28;20037;-41
2023/08/16 14:54:51;;;;;;;4.03;0.80;;;24.90;1.00;;;;;;20710742;28;20092;-41
2023/08/16 15:04:52;;;;;;;2.35;1.27;;;24.80;1.00;;;;;;20704949;28;20049;-41
2023/08/16 15:14:52;;;;;;;2.63;0.70;;;24.80;1.00;;;;;;20705463;28;20049;-41
2023/08/16 15:24:54;;;;;;;1.58;0.75;;;24.80;1.00;;;;;;20719550;28;20508;-41
2023/08/16 15:34:55;;;;;;;1.42;0.80;;;24.70;1.00;;;;;;20722929;28;20046;-41
2023/08/16 15:44:55;;;;;;;2.78;1.30;;;24.60;1.00;;;;;;20712271;28;20045;-41
2023/08/16 15:54:56;;;;;;;2.10;1.10;;;24.60;1.00;;;;;;20717596;28;20085;-41
2023/08/16 16:04:57;;;;;;;1.50;0.80;;;24.50;1.00;;;;;;20702430;28;20092;-41
2023/08/16 16:14:57;;;;;;;2.80;1.17;;;24.50;1.00;;;;;;20667438;28;20046;-41
2023/08/16 16:24:58;;;;;;;1.75;0.80;;;24.40;1.00;;;;;;20684066;28;20625;-41
2023/08/16 16:34:58;;;;;;;2.30;1.00;;;24.20;1.00;;;;;;20666089;28;20080;-41
2023/08/16 16:45:00;;;;;;;1.92;1.20;;;24.00;1.00;;;;;;20710051;28;20065;-41
2023/08/16 16:55:00;;;;;;;2.97;1.33;;;23.80;1.00;;;;;;20703563;28;20045;-41
2023/08/16 17:05:01;;;;;;;2.30;1.42;;;23.40;1.00;;;;;;20691252;28;20034;-41
2023/08/16 17:15:02;;;;;;;3.13;1.25;;;23.20;1.00;;;;;;20697963;28;20053;-41
2023/08/16 17:25:03;;;;;;;3.20;1.30;;;22.90;1.00;;;;;;20684970;28;20446;-41
2023/08/16 17:35:04;;;;;;;3.40;1.17;;;22.80;1.00;;;;;;20672507;28;20239;-41
2023/08/16 17:45:05;;;;;;;3.05;1.08;;;22.70;1.00;;;;;;20665422;28;20053;-41
2023/08/16 17:55:06;;;;;;;3.05;1.10;;;22.50;1.00;;;;;;20685790;28;20525;-41
2023/08/16 18:05:07;;;;;;;4.22;1.10;;;22.30;1.00;;;;;;20688157;28;20508;-41
2023/08/16 18:15:08;;;;;;;4.78;1.30;;;22.20;1.00;;;;;;20700250;28;20046;-41
2023/08/16 18:25:09;;;;;;;2.08;1.30;;;22.20;1.00;;;;;;20722949;28;20045;-41
2023/08/16 18:35:09;;;;;;;3.30;1.40;;;22.00;1.00;;;;;;20706488;28;20069;-41
2023/08/16 18:45:10;;;;;;;3.17;1.00;;;22.00;1.00;;;;;;20727445;28;20077;-41
2023/08/16 18:55:10;;;;;;;2.67;1.20;;;21.80;1.00;;;;;;20726277;28;20687;-41
2023/08/16 19:05:11;;;;;;;2.53;1.38;;;21.80;1.00;;;;;;20714756;28;20048;-41
2023/08/16 19:15:12;;;;;;;3.10;1.20;;;21.70;1.00;;;;;;20721032;28;20107;-41
2023/08/16 19:25:12;;;;;;;4.20;1.30;;;21.70;1.00;;;;;;20720855;28;20113;-41
2023/08/16 19:35:13;;;;;;;4.00;1.85;;;21.60;1.00;;;;;;20725558;28;20498;-41
2023/08/16 19:45:13;;;;;;;2.53;1.40;;;21.40;1.00;;;;;;20708262;28;20044;-41
2023/08/16 19:55:14;;;;;;;2.50;1.10;;;21.40;1.00;;;;;;20710203;28;20042;-41
2023/08/16 20:05:15;;;;;;;3.20;1.70;;;21.30;1.00;;;;;;20716773;28;20492;-41
2023/08/16 20:15:15;;;;;;;3.65;1.77;;;21.30;1.00;;;;;;20734139;28;20137;-41
2023/08/16 20:25:16;;;;;;;4.32;1.33;;;21.10;1.00;;;;;;20714353;28;20145;-41
2023/08/16 20:35:20;;;;;;;3.10;1.60;;;20.90;1.00;;;;;;20717844;28;20075;-41
2023/08/16 20:45:20;;;;;;;3.00;1.20;;;20.80;1.00;;;;;;20690547;28;20401;-41
2023/08/16 20:55:21;;;;;;;4.90;1.40;;;20.60;1.00;;;;;;20671557;28;22386;-41
2023/08/16 21:05:22;;;;;;;3.83;1.23;;;20.30;1.00;;;;;;20709649;28;20041;-41
2023/08/16 21:15:22;;;;;;;3.33;1.40;;;20.20;1.00;;;;;;20708399;28;20139;-41
2023/08/16 21:25:23;;;;;;;4.43;1.45;;;20.00;1.00;;;;;;20697127;28;20397;-41
2023/08/16 21:35:23;;;;;;;3.60;1.10;;;19.90;1.00;;;;;;20675603;28;20647;-41
2023/08/16 21:45:24;;;;;;;2.50;1.50;;;19.70;1.00;;;;;;20680725;28;20735;-41
2023/08/16 21:55:25;;;;;;;2.03;1.20;;;19.60;1.00;;;;;;20688666;28;20053;-41
2023/08/16 22:05:27;;;;;;;3.47;1.30;;;19.50;1.00;;;;;;20677695;28;20455;-41
2023/08/16 22:15:27;;;;;;;7.88;1.80;;;19.40;1.00;;;;;;20684498;28;20049;-41
2023/08/16 22:25:28;;;;;;;3.50;1.70;;;19.30;1.00;;;;;;20683690;28;20121;-41
2023/08/16 22:35:28;;;;;;;3.80;1.80;;;19.40;1.00;;;;;;20680608;28;20130;-41
2023/08/16 22:45:29;;;;;;;3.83;1.48;;;19.20;1.00;;;;;;20688769;28;20103;-41
2023/08/16 22:55:29;;;;;;;5.18;1.77;;;19.00;1.00;;;;;;20689690;28;20037;-41
2023/08/16 23:05:30;;;;;;;5.03;1.83;;;18.90;1.00;;;;;;20672038;28;20038;-41
2023/08/16 23:15:30;;;;;;;4.45;1.50;;;18.80;1.00;;;;;;20684914;28;20632;-41
2023/08/16 23:25:31;;;;;;;3.70;1.60;;;18.60;1.00;;;;;;20685703;28;20069;-41
2023/08/16 23:35:31;;;;;;;5.15;1.42;;;18.60;1.00;;;;;;20687173;28;20509;-41
2023/08/16 23:45:32;;;;;;;3.75;1.73;;;18.60;1.00;;;;;;20703973;28;20053;-41
2023/08/16 23:55:33;;;;;;;5.20;2.42;;;18.60;1.00;;;;;;20693032;28;20068;-41
